createdAt,value
2019-03-20T00:00:09.898Z,99.90
2019-03-20T00:02:38.453Z,99.90
2019-03-20T00:05:07.742Z,99.90
2019-03-20T00:07:36.233Z,99.90
2019-03-20T00:10:06.225Z,99.90
2019-03-20T00:12:34.781Z,99.90
2019-03-20T00:15:04.645Z,99.90
2019-03-20T00:17:33.131Z,99.90
2019-03-20T00:20:01.577Z,99.90
2019-03-20T00:22:30.065Z,99.90
2019-03-20T00:24:58.517Z,99.90
2019-03-20T00:27:26.972Z,99.90
2019-03-20T00:29:55.453Z,99.90
2019-03-20T00:32:23.909Z,99.90
2019-03-20T00:35:00.471Z,99.90
2019-03-20T00:37:22.571Z,99.90
2019-03-20T00:39:51.055Z,99.90
2019-03-20T00:42:19.501Z,99.90
2019-03-20T00:44:47.988Z,99.90
2019-03-20T00:47:16.443Z,99.90
2019-03-20T00:49:45.013Z,99.90
2019-03-20T00:52:13.467Z,99.90
2019-03-20T00:54:42.627Z,99.90
2019-03-20T00:57:11.077Z,99.90
2019-03-20T00:59:39.541Z,99.90
2019-03-20T01:02:08.024Z,99.90
2019-03-20T01:04:36.484Z,99.90
2019-03-20T01:07:05.101Z,99.90
2019-03-20T01:09:33.557Z,99.90
2019-03-20T01:12:02.111Z,99.90
2019-03-20T01:14:30.569Z,99.90
2019-03-20T01:16:59.053Z,99.90
2019-03-20T01:19:27.581Z,99.90
2019-03-20T01:21:56.035Z,99.90
2019-03-20T01:24:24.517Z,99.90
2019-03-20T01:26:52.966Z,99.90
2019-03-20T01:29:21.459Z,99.90
2019-03-20T01:31:49.909Z,99.90
2019-03-20T01:34:18.398Z,99.90
2019-03-20T01:36:46.845Z,99.90
2019-03-20T01:39:15.329Z,99.90
2019-03-20T01:41:43.775Z,99.90
2019-03-20T01:44:12.259Z,99.90
2019-03-20T01:46:40.710Z,99.90
2019-03-20T01:49:09.193Z,99.90
2019-03-20T01:51:37.645Z,99.90
2019-03-20T01:54:06.097Z,99.90
2019-03-20T01:56:34.573Z,99.90
2019-03-20T01:59:03.054Z,99.90
2019-03-20T02:01:31.633Z,99.90
2019-03-20T02:04:00.184Z,99.90
2019-03-20T02:06:28.774Z,99.90
2019-03-20T02:08:57.322Z,99.90
2019-03-20T02:11:25.899Z,99.90
2019-03-20T02:13:54.453Z,99.90
2019-03-20T02:16:22.961Z,99.90
2019-03-20T02:18:51.509Z,99.90
2019-03-20T02:21:20.021Z,99.90
2019-03-20T02:23:48.569Z,99.90
2019-03-20T02:26:17.145Z,99.90
2019-03-20T02:28:45.697Z,99.90
2019-03-20T02:31:14.270Z,99.90
2019-03-20T02:33:42.820Z,99.90
2019-03-20T02:36:11.327Z,99.90
2019-03-20T02:38:39.942Z,99.90
2019-03-20T02:41:08.513Z,99.90
2019-03-20T02:43:37.065Z,99.90
2019-03-20T02:46:05.642Z,99.90
2019-03-20T02:48:34.190Z,99.90
2019-03-20T02:51:02.795Z,99.90
2019-03-20T02:53:31.309Z,99.90
2019-03-20T02:55:59.816Z,99.90
2019-03-20T02:58:28.362Z,99.90
2019-03-20T03:00:56.950Z,99.90
2019-03-20T03:03:25.654Z,99.90
2019-03-20T03:06:06.002Z,99.90
2019-03-20T03:08:24.499Z,99.90
2019-03-20T03:10:55.604Z,99.90
2019-03-20T03:13:23.265Z,99.90
2019-03-20T03:15:51.840Z,99.90
2019-03-20T03:18:20.390Z,99.90
2019-03-20T03:20:48.969Z,99.90
2019-03-20T03:23:17.527Z,99.90
2019-03-20T03:25:46.066Z,99.90
2019-03-20T03:28:14.650Z,99.90
2019-03-20T03:30:43.203Z,99.90
2019-03-20T03:33:11.786Z,99.90
2019-03-20T03:35:40.350Z,99.90
2019-03-20T03:38:08.921Z,99.90
2019-03-20T03:40:37.470Z,99.90
2019-03-20T03:43:06.055Z,99.90
2019-03-20T03:45:34.597Z,99.90
2019-03-20T03:48:03.115Z,99.90
2019-03-20T03:50:31.643Z,99.90
2019-03-20T03:53:00.226Z,99.90
2019-03-20T03:55:28.770Z,99.90
2019-03-20T03:57:57.695Z,99.90
2019-03-20T04:00:26.243Z,99.90
2019-03-20T04:02:54.836Z,99.90
2019-03-20T04:05:23.369Z,99.90
2019-03-20T04:07:51.957Z,99.90
2019-03-20T04:10:20.514Z,99.90
2019-03-20T04:12:49.158Z,99.90
2019-03-20T04:15:18.122Z,99.90
2019-03-20T04:17:46.688Z,99.90
2019-03-20T04:20:16.614Z,99.90
2019-03-20T04:22:45.150Z,99.90
2019-03-20T04:25:13.962Z,99.90
2019-03-20T04:27:42.665Z,99.90
2019-03-20T04:30:15.804Z,99.90
2019-03-20T04:32:44.564Z,99.90
2019-03-20T04:35:13.376Z,99.90
2019-03-20T04:37:41.959Z,99.90
2019-03-20T04:40:15.044Z,99.90
2019-03-20T04:42:43.622Z,99.90
2019-03-20T04:45:13.620Z,99.90
2019-03-20T04:47:42.203Z,99.90
2019-03-20T04:50:12.951Z,99.90
2019-03-20T04:52:41.521Z,99.90
2019-03-20T04:55:10.206Z,99.90
2019-03-20T04:57:38.832Z,99.90
2019-03-20T05:00:18.437Z,99.90
2019-03-20T05:02:47.007Z,99.90
2019-03-20T05:05:15.561Z,99.90
2019-03-20T05:07:44.108Z,99.90
2019-03-20T05:10:15.198Z,99.90
2019-03-20T05:12:43.821Z,99.90
2019-03-20T05:15:13.539Z,99.90
2019-03-20T05:17:42.087Z,99.90
2019-03-20T05:20:13.020Z,99.90
2019-03-20T05:22:41.565Z,99.90
2019-03-20T05:25:10.220Z,99.90
2019-03-20T05:27:38.768Z,99.90
2019-03-20T05:30:13.580Z,99.90
2019-03-20T05:32:42.125Z,99.90
2019-03-20T05:35:10.707Z,99.90
2019-03-20T05:37:39.276Z,99.90
2019-03-20T05:40:15.806Z,99.90
2019-03-20T05:42:44.289Z,99.90
2019-03-20T05:45:14.310Z,99.90
2019-03-20T05:47:42.866Z,99.90
2019-03-20T05:50:16.043Z,99.90
2019-03-20T05:52:44.660Z,99.90
2019-03-20T05:55:32.571Z,99.90
2019-03-20T05:58:01.130Z,99.90
2019-03-20T06:00:31.350Z,99.90
2019-03-20T06:02:59.905Z,99.90
2019-03-20T06:05:28.490Z,99.90
2019-03-20T06:07:57.038Z,99.90
2019-03-20T06:10:25.615Z,99.90
2019-03-20T06:12:54.171Z,99.90
2019-03-20T06:15:24.497Z,99.90
2019-03-20T06:17:52.953Z,99.90
2019-03-20T06:20:21.530Z,99.90
2019-03-20T06:22:50.090Z,99.90
2019-03-20T06:25:21.364Z,99.90
2019-03-20T06:27:48.870Z,99.90
2019-03-20T06:30:18.595Z,99.90
2019-03-20T06:32:47.214Z,99.90
2019-03-20T06:35:15.724Z,99.90
2019-03-20T06:37:44.270Z,99.90
2019-03-20T06:40:17.733Z,99.90
2019-03-20T06:42:46.514Z,99.90
2019-03-20T06:45:16.437Z,99.90
2019-03-20T06:47:44.990Z,99.90
2019-03-20T06:50:15.306Z,99.90
2019-03-20T06:52:43.859Z,99.90
2019-03-20T06:55:12.520Z,99.90
2019-03-20T06:57:41.137Z,99.90
2019-03-20T07:00:38.442Z,99.90
2019-03-20T07:03:18.847Z,99.90
2019-03-20T07:06:02.354Z,99.90
2019-03-20T07:08:36.661Z,99.90
2019-03-20T07:11:08.030Z,99.90
2019-03-20T07:13:36.649Z,99.90
2019-03-20T07:16:05.844Z,99.90
2019-03-20T07:18:34.486Z,99.90
2019-03-20T07:21:03.119Z,99.90
2019-03-20T07:23:31.689Z,99.90
2019-03-20T07:26:00.241Z,99.90
2019-03-20T07:28:28.832Z,99.90
2019-03-20T07:30:57.415Z,99.90
2019-03-20T07:33:25.994Z,99.90
2019-03-20T07:35:54.605Z,99.90
2019-03-20T07:38:23.331Z,99.90
2019-03-20T07:40:51.886Z,99.90
2019-03-20T07:43:20.469Z,99.90
2019-03-20T07:45:49.092Z,99.90
2019-03-20T07:48:22.044Z,99.90
2019-03-20T07:50:47.932Z,99.90
2019-03-20T07:53:16.510Z,99.90
2019-03-20T07:55:45.068Z,99.90
2019-03-20T07:58:13.710Z,99.90
2019-03-20T08:00:42.265Z,99.90
2019-03-20T08:03:10.850Z,99.90
2019-03-20T08:05:39.403Z,99.90
2019-03-20T08:08:08.102Z,99.90
2019-03-20T08:10:37.082Z,99.90
2019-03-20T08:13:24.958Z,99.90
2019-03-20T08:15:53.533Z,99.90
2019-03-20T08:18:22.094Z,99.90
2019-03-20T08:20:50.665Z,99.90
2019-03-20T08:23:19.209Z,99.90
2019-03-20T08:25:47.790Z,99.90
2019-03-20T08:28:16.342Z,99.90
2019-03-20T08:30:44.936Z,99.90
2019-03-20T08:33:13.478Z,99.90
2019-03-20T08:35:42.030Z,99.90
2019-03-20T08:38:18.092Z,99.90
2019-03-20T08:40:40.810Z,99.90
2019-03-20T08:43:09.396Z,99.90
2019-03-20T08:45:37.947Z,99.90
2019-03-20T08:48:06.786Z,99.90
2019-03-20T08:50:35.290Z,99.90
2019-03-20T08:53:04.151Z,99.90
2019-03-20T08:55:32.669Z,99.90
2019-03-20T08:58:01.233Z,99.90
2019-03-20T09:00:29.873Z,99.90
2019-03-20T09:02:58.422Z,99.90
2019-03-20T09:05:27.004Z,99.90
2019-03-20T09:07:55.560Z,99.90
2019-03-20T09:10:27.226Z,99.90
2019-03-20T09:12:55.775Z,99.90
2019-03-20T09:15:24.429Z,99.90
2019-03-20T09:17:52.906Z,99.00
2019-03-20T09:20:23.613Z,96.90
2019-03-20T09:22:52.173Z,99.00
2019-03-20T09:25:22.754Z,98.80
2019-03-20T09:27:51.268Z,96.50
2019-03-20T09:30:28.094Z,97.30
2019-03-20T09:32:56.725Z,99.00
2019-03-20T09:35:25.458Z,96.60
2019-03-20T09:37:54.004Z,96.60
2019-03-20T09:40:29.074Z,96.00
2019-03-20T09:42:57.622Z,96.40
2019-03-20T09:45:26.268Z,96.10
2019-03-20T09:47:54.818Z,98.80
2019-03-20T09:50:24.354Z,94.70
2019-03-20T09:52:52.975Z,93.80
2019-03-20T09:55:21.549Z,95.50
2019-03-20T09:57:50.100Z,97.80
2019-03-20T10:00:28.299Z,95.90
2019-03-20T10:02:56.838Z,93.10
2019-03-20T10:05:25.483Z,92.20
2019-03-20T10:07:54.092Z,94.00
2019-03-20T10:10:27.892Z,90.00
2019-03-20T10:12:56.434Z,93.00
2019-03-20T10:15:26.353Z,90.80
2019-03-20T10:17:54.977Z,89.80
2019-03-20T10:20:24.726Z,92.00
2019-03-20T10:22:53.281Z,90.60
2019-03-20T10:25:21.934Z,87.30
2019-03-20T10:27:51.974Z,75.10
2019-03-20T10:30:24.694Z,62.70
2019-03-20T10:32:53.306Z,70.20
2019-03-20T10:35:22.170Z,55.90
2019-03-20T10:37:50.789Z,48.10
2019-03-20T10:40:23.218Z,52.80
2019-03-20T10:42:51.853Z,43.00
2019-03-20T10:45:20.884Z,39.80
2019-03-20T10:47:52.815Z,41.40
2019-03-20T10:50:21.698Z,35.50
2019-03-20T10:52:50.202Z,33.30
2019-03-20T10:55:18.757Z,36.90
2019-03-20T10:57:47.395Z,37.00
2019-03-20T11:00:22.968Z,27.70
2019-03-20T11:02:51.615Z,30.50
2019-03-20T11:05:20.442Z,29.90
2019-03-20T11:07:49.460Z,32.40
2019-03-20T11:10:22.398Z,29.70
2019-03-20T11:12:51.113Z,28.50
2019-03-20T11:15:20.814Z,31.40
2019-03-20T11:17:49.673Z,29.00
2019-03-20T11:20:22.906Z,29.50
2019-03-20T11:22:51.760Z,23.50
2019-03-20T11:25:26.990Z,31.70
2019-03-20T11:27:55.842Z,26.60
2019-03-20T11:30:25.938Z,23.60
2019-03-20T11:32:54.599Z,25.30
2019-03-20T11:35:23.386Z,30.10
2019-03-20T11:37:52.033Z,26.70
2019-03-20T11:40:25.532Z,25.90
2019-03-20T11:42:54.250Z,23.90
2019-03-20T11:45:23.674Z,22.80
2019-03-20T11:47:52.791Z,24.40
2019-03-20T11:50:36.252Z,23.20
2019-03-20T11:53:06.383Z,25.70
2019-03-20T11:55:34.926Z,26.80
2019-03-20T11:58:03.700Z,24.60
2019-03-20T12:00:32.265Z,25.60
2019-03-20T12:03:00.838Z,26.60
2019-03-20T12:05:29.398Z,22.80
2019-03-20T12:07:58.058Z,26.10
2019-03-20T12:10:34.383Z,21.90
2019-03-20T12:13:03.037Z,26.90
2019-03-20T12:15:31.723Z,22.40
2019-03-20T12:18:00.317Z,27.10
2019-03-20T12:20:28.892Z,27.00
2019-03-20T12:22:57.522Z,22.50
2019-03-20T12:25:30.082Z,20.20
2019-03-20T12:27:59.009Z,22.80
2019-03-20T12:30:38.036Z,25.90
2019-03-20T12:33:07.146Z,26.00
2019-03-20T12:35:40.377Z,23.80
2019-03-20T12:38:14.693Z,20.30
2019-03-20T12:40:39.266Z,23.80
2019-03-20T12:43:07.838Z,22.50
2019-03-20T12:45:37.335Z,24.00
2019-03-20T12:48:07.396Z,24.40
2019-03-20T12:50:36.067Z,20.80
2019-03-20T12:53:06.490Z,21.40
2019-03-20T12:55:35.106Z,20.20
2019-03-20T12:58:03.754Z,18.50
2019-03-20T13:00:32.246Z,20.40
2019-03-20T13:03:00.795Z,20.50
2019-03-20T13:05:29.387Z,23.00
2019-03-20T13:08:05.386Z,25.90
2019-03-20T13:10:28.567Z,19.50
2019-03-20T13:12:57.086Z,20.50
2019-03-20T13:15:29.042Z,22.60
2019-03-20T13:17:58.122Z,21.40
2019-03-20T13:20:27.446Z,22.30
2019-03-20T13:23:07.813Z,21.90
2019-03-20T13:25:36.451Z,20.60
2019-03-20T13:28:05.138Z,20.50
2019-03-20T13:30:36.854Z,22.00
2019-03-20T13:33:05.474Z,19.00
2019-03-20T13:35:34.070Z,20.60
2019-03-20T13:38:02.631Z,24.60
2019-03-20T13:40:31.214Z,22.70
2019-03-20T13:42:59.770Z,22.00
2019-03-20T13:45:28.921Z,21.90
2019-03-20T13:47:57.402Z,19.70
2019-03-20T13:50:25.913Z,18.90
2019-03-20T13:52:54.462Z,22.60
2019-03-20T13:55:22.976Z,22.20
2019-03-20T13:57:51.543Z,21.40
2019-03-20T14:00:24.341Z,20.90
2019-03-20T14:02:53.110Z,22.90
2019-03-20T14:05:21.762Z,23.70
2019-03-20T14:07:50.378Z,21.00
2019-03-20T14:10:25.139Z,22.60
2019-03-20T14:12:50.701Z,22.50
2019-03-20T14:15:20.314Z,21.20
2019-03-20T14:17:48.874Z,20.20
2019-03-20T14:20:25.726Z,23.00
2019-03-20T14:22:54.278Z,25.40
2019-03-20T14:25:23.407Z,25.40
2019-03-20T14:27:52.590Z,23.50
2019-03-20T14:30:28.634Z,23.90
2019-03-20T14:32:57.326Z,23.70
2019-03-20T14:35:25.986Z,23.50
2019-03-20T14:37:54.613Z,21.90
2019-03-20T14:40:36.059Z,21.50
2019-03-20T14:43:02.669Z,23.50
2019-03-20T14:45:31.194Z,22.60
2019-03-20T14:47:59.790Z,24.30
2019-03-20T14:50:32.330Z,21.90
2019-03-20T14:53:00.982Z,21.30
2019-03-20T14:55:29.679Z,24.40
2019-03-20T14:57:58.258Z,23.20
2019-03-20T15:00:27.851Z,23.60
2019-03-20T15:02:56.769Z,24.00
2019-03-20T15:05:25.686Z,22.90
2019-03-20T15:07:54.270Z,22.10
2019-03-20T15:10:23.969Z,26.00
2019-03-20T15:12:53.189Z,25.60
2019-03-20T15:15:36.609Z,23.10
2019-03-20T15:18:06.318Z,25.50
2019-03-20T15:20:35.126Z,26.90
2019-03-20T15:23:03.762Z,28.80
2019-03-20T15:25:32.314Z,28.50
2019-03-20T15:28:00.886Z,29.30
2019-03-20T15:30:29.781Z,30.00
2019-03-20T15:32:58.496Z,30.80
2019-03-20T15:35:27.049Z,30.50
2019-03-20T15:37:55.643Z,32.70
2019-03-20T15:40:31.136Z,34.20
2019-03-20T15:42:59.794Z,31.20
2019-03-20T15:45:28.427Z,33.30
2019-03-20T15:47:57.010Z,34.10
2019-03-20T15:50:27.002Z,36.30
2019-03-20T15:52:55.726Z,36.20
2019-03-20T15:55:34.236Z,34.50
2019-03-20T15:58:02.808Z,36.70
2019-03-20T16:00:31.438Z,37.70
2019-03-20T16:03:11.582Z,38.30
2019-03-20T16:05:40.198Z,38.30
2019-03-20T16:08:08.704Z,39.30
2019-03-20T16:10:37.326Z,38.80
2019-03-20T16:13:06.250Z,39.20
2019-03-20T16:15:34.858Z,39.60
2019-03-20T16:18:03.365Z,39.90
2019-03-20T16:20:31.910Z,40.50
2019-03-20T16:23:00.418Z,42.00
2019-03-20T16:25:28.980Z,42.60
2019-03-20T16:27:57.558Z,42.20
2019-03-20T16:30:27.750Z,42.50
2019-03-20T16:32:56.654Z,45.80
2019-03-20T16:35:25.368Z,45.00
2019-03-20T16:37:53.916Z,49.60
2019-03-20T16:40:27.394Z,50.40
2019-03-20T16:42:55.958Z,51.00
2019-03-20T16:45:30.006Z,55.20
2019-03-20T16:47:58.700Z,54.00
2019-03-20T16:50:27.347Z,54.20
2019-03-20T16:52:56.066Z,52.70
2019-03-20T16:55:24.638Z,59.30
2019-03-20T16:57:53.192Z,64.30
2019-03-20T17:00:31.989Z,63.20
2019-03-20T17:03:00.734Z,63.90
2019-03-20T17:05:30.347Z,64.00
2019-03-20T17:07:58.977Z,63.60
2019-03-20T17:10:30.160Z,59.90
2019-03-20T17:12:59.450Z,64.70
2019-03-20T17:15:33.742Z,64.40
2019-03-20T17:18:02.304Z,64.40
2019-03-20T17:20:30.928Z,68.20
2019-03-20T17:22:59.582Z,73.90
2019-03-20T17:25:28.302Z,74.00
2019-03-20T17:27:56.994Z,73.50
2019-03-20T17:30:39.614Z,75.00
2019-03-20T17:33:08.508Z,83.10
2019-03-20T17:35:37.100Z,79.40
2019-03-20T17:38:05.936Z,85.90
2019-03-20T17:40:34.503Z,87.00
2019-03-20T17:43:03.240Z,90.10
2019-03-20T17:45:32.626Z,90.50
2019-03-20T17:48:01.104Z,91.40
2019-03-20T17:50:32.110Z,91.60
2019-03-20T17:53:01.398Z,91.80
2019-03-20T17:55:30.046Z,92.20
2019-03-20T17:57:58.518Z,92.30
2019-03-20T18:00:39.322Z,92.90
2019-03-20T18:03:08.016Z,93.40
2019-03-20T18:05:37.231Z,93.20
2019-03-20T18:08:06.930Z,93.60
2019-03-20T18:10:35.635Z,94.30
2019-03-20T18:13:05.587Z,94.10
2019-03-20T18:15:34.622Z,94.60
2019-03-20T18:18:03.104Z,95.50
2019-03-20T18:20:31.763Z,95.90
2019-03-20T18:23:00.324Z,95.60
2019-03-20T18:25:28.802Z,95.70
2019-03-20T18:27:57.459Z,95.70
2019-03-20T18:30:33.486Z,95.80
2019-03-20T18:33:02.077Z,96.10
2019-03-20T18:35:30.650Z,96.20
2019-03-20T18:37:59.234Z,96.20
2019-03-20T18:40:28.324Z,95.60
2019-03-20T18:42:57.393Z,95.90
2019-03-20T18:45:26.988Z,96.60
2019-03-20T18:47:55.638Z,96.90
2019-03-20T18:50:25.333Z,97.60
2019-03-20T18:52:54.860Z,97.60
2019-03-20T18:55:23.494Z,97.50
2019-03-20T18:57:52.146Z,97.30
2019-03-20T19:00:31.949Z,97.20
2019-03-20T19:03:18.434Z,97.30
2019-03-20T19:05:58.841Z,97.60
2019-03-20T19:08:27.427Z,97.70
2019-03-20T19:10:55.994Z,97.80
2019-03-20T19:13:24.618Z,97.50
2019-03-20T19:15:53.135Z,98.50
2019-03-20T19:18:21.719Z,98.80
2019-03-20T19:20:50.268Z,99.30
2019-03-20T19:23:18.922Z,99.20
2019-03-20T19:25:47.511Z,99.50
2019-03-20T19:28:16.066Z,99.10
2019-03-20T19:30:44.686Z,99.10
2019-03-20T19:33:13.271Z,99.30
2019-03-20T19:35:41.831Z,99.20
2019-03-20T19:38:10.414Z,98.70
2019-03-20T19:40:38.977Z,99.60
2019-03-20T19:43:07.557Z,99.60
2019-03-20T19:45:36.111Z,99.80
2019-03-20T19:48:04.833Z,99.90
2019-03-20T19:50:33.399Z,99.90
2019-03-20T19:53:01.985Z,99.80
2019-03-20T19:55:30.539Z,99.90
2019-03-20T19:57:59.115Z,99.90
2019-03-20T20:00:28.340Z,99.90
2019-03-20T20:02:56.873Z,99.90
2019-03-20T20:05:25.502Z,99.90
2019-03-20T20:07:54.089Z,99.90
2019-03-20T20:10:22.734Z,99.90
2019-03-20T20:12:51.368Z,99.90
2019-03-20T20:15:25.966Z,99.90
2019-03-20T20:17:54.589Z,99.90
2019-03-20T20:20:28.072Z,99.90
2019-03-20T20:22:56.627Z,99.90
2019-03-20T20:25:25.346Z,99.90
2019-03-20T20:27:53.900Z,99.90
2019-03-20T20:30:22.639Z,99.90
2019-03-20T20:32:51.197Z,99.90
2019-03-20T20:35:19.779Z,99.90
2019-03-20T20:37:49.871Z,99.90
2019-03-20T20:40:23.680Z,99.90
2019-03-20T20:42:52.232Z,99.90
2019-03-20T20:45:20.871Z,99.90
2019-03-20T20:47:49.422Z,99.90
2019-03-20T20:50:18.334Z,99.90
2019-03-20T20:52:47.160Z,99.90
2019-03-20T20:55:22.331Z,99.90
2019-03-20T20:57:50.898Z,99.90
2019-03-20T21:00:26.494Z,99.90
2019-03-20T21:02:55.128Z,99.90
2019-03-20T21:05:23.710Z,99.90
2019-03-20T21:07:52.253Z,99.90
2019-03-20T21:10:24.836Z,99.90
2019-03-20T21:12:56.891Z,99.90
2019-03-20T21:15:41.671Z,99.90
2019-03-20T21:18:16.257Z,99.90
2019-03-20T21:20:45.672Z,99.90
2019-03-20T21:23:40.281Z,99.90
2019-03-20T21:26:25.011Z,99.90
2019-03-20T21:29:29.966Z,99.90
2019-03-20T21:32:01.618Z,99.90
2019-03-20T21:34:39.110Z,99.90
2019-03-20T21:37:36.518Z,99.90
2019-03-20T21:40:08.406Z,99.90
2019-03-20T21:43:06.581Z,99.90
2019-03-20T21:45:44.798Z,99.90
2019-03-20T21:48:13.378Z,99.90
2019-03-20T21:51:03.082Z,99.90
2019-03-20T21:54:02.117Z,99.90
2019-03-20T21:56:51.676Z,99.90
2019-03-20T21:59:53.623Z,99.90
2019-03-20T22:02:44.289Z,99.90
2019-03-20T22:05:32.434Z,99.90
2019-03-20T22:08:00.918Z,99.90
2019-03-20T22:10:49.034Z,99.90
2019-03-20T22:13:23.687Z,99.90
2019-03-20T22:16:22.535Z,99.90
2019-03-20T22:19:05.474Z,99.90
2019-03-20T22:21:42.304Z,99.90
2019-03-20T22:24:16.668Z,99.90
2019-03-20T22:26:48.295Z,99.90
2019-03-20T22:29:24.747Z,99.90
2019-03-20T22:32:22.054Z,99.90
2019-03-20T22:35:20.434Z,99.90
2019-03-20T22:37:49.358Z,99.90
2019-03-20T22:40:26.879Z,99.90
2019-03-20T22:43:01.590Z,99.90
2019-03-20T22:46:06.479Z,99.90
2019-03-20T22:48:46.604Z,99.90
2019-03-20T22:51:27.514Z,99.90
2019-03-20T22:54:15.650Z,99.90
2019-03-20T22:57:15.622Z,99.90
2019-03-20T22:59:44.169Z,99.90
2019-03-20T23:02:15.796Z,99.90
2019-03-20T23:04:47.915Z,99.90
2019-03-20T23:07:16.467Z,99.90
2019-03-20T23:09:45.123Z,99.90
2019-03-20T23:12:14.372Z,99.90
2019-03-20T23:14:42.931Z,99.90
2019-03-20T23:17:11.454Z,99.90
2019-03-20T23:19:41.383Z,99.90
2019-03-20T23:22:10.192Z,99.90
2019-03-20T23:24:38.674Z,99.90
2019-03-20T23:27:10.438Z,99.90
2019-03-20T23:29:38.920Z,99.90
2019-03-20T23:32:07.378Z,99.90
2019-03-20T23:34:35.863Z,99.90
2019-03-20T23:37:04.393Z,99.90
2019-03-20T23:39:32.943Z,99.90
2019-03-20T23:42:01.466Z,99.90
2019-03-20T23:44:29.960Z,99.90
2019-03-20T23:46:58.483Z,99.90
2019-03-20T23:49:27.020Z,99.90
2019-03-20T23:51:55.943Z,99.90
2019-03-20T23:54:30.005Z,99.90
2019-03-20T23:56:58.585Z,99.90
2019-03-20T23:59:27.057Z,99.90
